sensor_id;sensor_type;location;lat;lon;timestamp;temperature;humidity
58993;DHT22;44782;0.000;0.000;2023-03-14T00:00:37;17.20;56.70
58993;DHT22;44782;0.000;0.000;2023-03-14T00:02:53;17.20;56.70
58993;DHT22;44782;0.000;0.000;2023-03-14T00:05:09;17.20;56.70
58993;DHT22;44782;0.000;0.000;2023-03-14T00:07:25;17.20;56.70
58993;DHT22;44782;0.000;0.000;2023-03-14T00:09:41;17.20;56.70
58993;DHT22;44782;0.000;0.000;2023-03-14T00:11:57;17.20;56.70
58993;DHT22;44782;0.000;0.000;2023-03-14T00:14:12;17.20;56.70
58993;DHT22;44782;0.000;0.000;2023-03-14T00:16:28;17.10;56.70
58993;DHT22;44782;0.000;0.000;2023-03-14T00:18:44;17.10;56.70
58993;DHT22;44782;0.000;0.000;2023-03-14T00:21:00;17.10;56.70
58993;DHT22;44782;0.000;0.000;2023-03-14T00:23:16;17.10;56.70
58993;DHT22;44782;0.000;0.000;2023-03-14T00:25:31;17.10;56.70
58993;DHT22;44782;0.000;0.000;2023-03-14T00:27:50;17.10;56.70
58993;DHT22;44782;0.000;0.000;2023-03-14T00:30:06;17.10;56.60
58993;DHT22;44782;0.000;0.000;2023-03-14T00:32:23;17.10;56.70
58993;DHT22;44782;0.000;0.000;2023-03-14T00:34:39;17.10;56.70
58993;DHT22;44782;0.000;0.000;2023-03-14T00:36:55;17.10;56.80
58993;DHT22;44782;0.000;0.000;2023-03-14T00:39:10;17.00;56.60
58993;DHT22;44782;0.000;0.000;2023-03-14T00:41:26;17.00;56.70
58993;DHT22;44782;0.000;0.000;2023-03-14T00:43:42;17.10;56.60
58993;DHT22;44782;0.000;0.000;2023-03-14T00:45:58;17.00;56.60
58993;DHT22;44782;0.000;0.000;2023-03-14T00:48:13;17.00;56.60
58993;DHT22;44782;0.000;0.000;2023-03-14T00:50:29;17.00;56.60
58993;DHT22;44782;0.000;0.000;2023-03-14T00:52:45;17.00;56.60
58993;DHT22;44782;0.000;0.000;2023-03-14T00:55:03;17.00;56.60
58993;DHT22;44782;0.000;0.000;2023-03-14T00:57:19;17.00;56.90
58993;DHT22;44782;0.000;0.000;2023-03-14T00:59:35;17.00;56.60
58993;DHT22;44782;0.000;0.000;2023-03-14T01:01:50;17.00;56.60
58993;DHT22;44782;0.000;0.000;2023-03-14T01:04:06;17.00;56.60
58993;DHT22;44782;0.000;0.000;2023-03-14T01:06:24;17.00;56.60
58993;DHT22;44782;0.000;0.000;2023-03-14T01:08:40;17.00;56.70
58993;DHT22;44782;0.000;0.000;2023-03-14T01:10:56;17.00;56.60
58993;DHT22;44782;0.000;0.000;2023-03-14T01:13:12;17.00;56.60
58993;DHT22;44782;0.000;0.000;2023-03-14T01:15:27;16.90;56.50
58993;DHT22;44782;0.000;0.000;2023-03-14T01:17:43;16.90;56.50
58993;DHT22;44782;0.000;0.000;2023-03-14T01:19:59;16.90;56.60
58993;DHT22;44782;0.000;0.000;2023-03-14T01:22:15;16.90;56.50
58993;DHT22;44782;0.000;0.000;2023-03-14T01:24:31;16.90;56.50
58993;DHT22;44782;0.000;0.000;2023-03-14T01:26:46;16.90;56.50
58993;DHT22;44782;0.000;0.000;2023-03-14T01:29:02;17.00;56.50
58993;DHT22;44782;0.000;0.000;2023-03-14T01:31:19;16.90;56.40
58993;DHT22;44782;0.000;0.000;2023-03-14T01:33:35;16.90;56.50
58993;DHT22;44782;0.000;0.000;2023-03-14T01:35:51;16.90;56.50
58993;DHT22;44782;0.000;0.000;2023-03-14T01:38:06;16.90;56.50
58993;DHT22;44782;0.000;0.000;2023-03-14T01:40:22;16.90;56.50
58993;DHT22;44782;0.000;0.000;2023-03-14T01:42:38;16.90;56.50
58993;DHT22;44782;0.000;0.000;2023-03-14T01:44:56;16.90;56.50
58993;DHT22;44782;0.000;0.000;2023-03-14T01:47:12;16.90;56.40
58993;DHT22;44782;0.000;0.000;2023-03-14T01:49:30;16.90;56.50
58993;DHT22;44782;0.000;0.000;2023-03-14T01:54:12;16.90;56.30
58993;DHT22;44782;0.000;0.000;2023-03-14T01:56:30;16.90;56.50
58993;DHT22;44782;0.000;0.000;2023-03-14T01:58:48;16.90;56.40
58993;DHT22;44782;0.000;0.000;2023-03-14T02:01:06;16.90;56.40
58993;DHT22;44782;0.000;0.000;2023-03-14T02:03:25;16.90;56.50
58993;DHT22;44782;0.000;0.000;2023-03-14T02:05:44;16.90;56.50
58993;DHT22;44782;0.000;0.000;2023-03-14T02:10:28;16.90;56.50
58993;DHT22;44782;0.000;0.000;2023-03-14T02:12:48;16.90;57.20
58993;DHT22;44782;0.000;0.000;2023-03-14T02:15:05;16.90;56.50
58993;DHT22;44782;0.000;0.000;2023-03-14T02:17:22;16.90;56.50
58993;DHT22;44782;0.000;0.000;2023-03-14T02:22:11;16.90;57.10
58993;DHT22;44782;0.000;0.000;2023-03-14T02:24:36;16.80;56.40
58993;DHT22;44782;0.000;0.000;2023-03-14T02:27:11;16.80;56.40
58993;DHT22;44782;0.000;0.000;2023-03-14T02:29:27;16.80;56.30
58993;DHT22;44782;0.000;0.000;2023-03-14T02:31:43;16.80;56.50
58993;DHT22;44782;0.000;0.000;2023-03-14T02:34:00;16.80;56.50
58993;DHT22;44782;0.000;0.000;2023-03-14T02:36:17;16.80;56.40
58993;DHT22;44782;0.000;0.000;2023-03-14T02:38:47;16.80;56.40
58993;DHT22;44782;0.000;0.000;2023-03-14T02:41:05;16.80;56.30
58993;DHT22;44782;0.000;0.000;2023-03-14T02:43:21;16.80;56.50
58993;DHT22;44782;0.000;0.000;2023-03-14T02:45:44;16.80;56.50
58993;DHT22;44782;0.000;0.000;2023-03-14T02:48:05;16.80;56.40
58993;DHT22;44782;0.000;0.000;2023-03-14T02:50:24;16.80;56.40
58993;DHT22;44782;0.000;0.000;2023-03-14T02:52:41;16.80;56.50
58993;DHT22;44782;0.000;0.000;2023-03-14T02:54:57;16.80;56.50
58993;DHT22;44782;0.000;0.000;2023-03-14T02:57:13;16.80;56.50
58993;DHT22;44782;0.000;0.000;2023-03-14T02:59:28;16.80;56.50
58993;DHT22;44782;0.000;0.000;2023-03-14T03:01:44;16.80;56.50
58993;DHT22;44782;0.000;0.000;2023-03-14T03:04:00;16.80;56.50
58993;DHT22;44782;0.000;0.000;2023-03-14T03:06:15;16.80;56.50
58993;DHT22;44782;0.000;0.000;2023-03-14T03:08:31;16.70;56.40
58993;DHT22;44782;0.000;0.000;2023-03-14T03:10:47;16.70;56.50
58993;DHT22;44782;0.000;0.000;2023-03-14T03:13:02;16.70;56.50
58993;DHT22;44782;0.000;0.000;2023-03-14T03:15:18;16.70;56.50
58993;DHT22;44782;0.000;0.000;2023-03-14T03:17:34;16.70;56.50
58993;DHT22;44782;0.000;0.000;2023-03-14T03:19:49;16.70;56.50
58993;DHT22;44782;0.000;0.000;2023-03-14T03:22:05;16.70;56.50
58993;DHT22;44782;0.000;0.000;2023-03-14T03:24:21;16.70;56.50
58993;DHT22;44782;0.000;0.000;2023-03-14T03:26:36;16.70;56.50
58993;DHT22;44782;0.000;0.000;2023-03-14T03:28:52;16.70;56.50
58993;DHT22;44782;0.000;0.000;2023-03-14T03:31:09;16.70;56.60
58993;DHT22;44782;0.000;0.000;2023-03-14T03:33:25;16.70;56.50
58993;DHT22;44782;0.000;0.000;2023-03-14T03:35:46;16.70;56.50
58993;DHT22;44782;0.000;0.000;2023-03-14T03:38:02;16.70;56.50
58993;DHT22;44782;0.000;0.000;2023-03-14T03:40:17;16.70;56.50
58993;DHT22;44782;0.000;0.000;2023-03-14T03:42:34;16.70;56.50
58993;DHT22;44782;0.000;0.000;2023-03-14T03:44:50;16.70;56.60
58993;DHT22;44782;0.000;0.000;2023-03-14T03:47:05;16.70;56.60
58993;DHT22;44782;0.000;0.000;2023-03-14T03:49:21;16.70;56.60
58993;DHT22;44782;0.000;0.000;2023-03-14T03:51:37;16.70;56.60
58993;DHT22;44782;0.000;0.000;2023-03-14T03:53:52;16.70;56.60
58993;DHT22;44782;0.000;0.000;2023-03-14T03:56:09;16.70;56.60
58993;DHT22;44782;0.000;0.000;2023-03-14T03:58:25;16.70;56.60
58993;DHT22;44782;0.000;0.000;2023-03-14T04:00:40;16.70;56.60
58993;DHT22;44782;0.000;0.000;2023-03-14T04:02:56;16.70;56.60
58993;DHT22;44782;0.000;0.000;2023-03-14T04:05:12;16.70;56.60
58993;DHT22;44782;0.000;0.000;2023-03-14T04:07:27;16.70;56.60
58993;DHT22;44782;0.000;0.000;2023-03-14T04:09:43;16.70;56.60
58993;DHT22;44782;0.000;0.000;2023-03-14T04:11:59;16.70;56.60
58993;DHT22;44782;0.000;0.000;2023-03-14T04:14:14;16.70;56.60
58993;DHT22;44782;0.000;0.000;2023-03-14T04:16:30;16.70;56.60
58993;DHT22;44782;0.000;0.000;2023-03-14T04:18:49;16.70;56.70
58993;DHT22;44782;0.000;0.000;2023-03-14T04:21:05;16.60;56.60
58993;DHT22;44782;0.000;0.000;2023-03-14T04:23:22;16.70;56.70
58993;DHT22;44782;0.000;0.000;2023-03-14T04:25:39;16.60;56.60
58993;DHT22;44782;0.000;0.000;2023-03-14T04:27:55;16.60;56.60
58993;DHT22;44782;0.000;0.000;2023-03-14T04:30:10;16.60;56.60
58993;DHT22;44782;0.000;0.000;2023-03-14T04:32:26;16.60;56.60
58993;DHT22;44782;0.000;0.000;2023-03-14T04:34:42;16.60;56.70
58993;DHT22;44782;0.000;0.000;2023-03-14T04:36:57;16.60;56.70
58993;DHT22;44782;0.000;0.000;2023-03-14T04:39:13;16.70;56.70
58993;DHT22;44782;0.000;0.000;2023-03-14T04:41:29;16.60;56.70
58993;DHT22;44782;0.000;0.000;2023-03-14T04:43:44;16.60;56.70
58993;DHT22;44782;0.000;0.000;2023-03-14T04:46:00;16.60;56.70
58993;DHT22;44782;0.000;0.000;2023-03-14T04:48:15;16.60;56.70
58993;DHT22;44782;0.000;0.000;2023-03-14T04:50:31;16.60;56.70
58993;DHT22;44782;0.000;0.000;2023-03-14T04:52:47;16.60;56.80
58993;DHT22;44782;0.000;0.000;2023-03-14T04:55:02;16.60;56.80
58993;DHT22;44782;0.000;0.000;2023-03-14T04:57:18;16.60;56.80
58993;DHT22;44782;0.000;0.000;2023-03-14T04:59:34;16.60;56.80
58993;DHT22;44782;0.000;0.000;2023-03-14T05:01:49;16.60;56.80
58993;DHT22;44782;0.000;0.000;2023-03-14T05:04:05;16.60;56.80
58993;DHT22;44782;0.000;0.000;2023-03-14T05:06:21;16.60;56.90
58993;DHT22;44782;0.000;0.000;2023-03-14T05:08:36;16.60;56.80
58993;DHT22;44782;0.000;0.000;2023-03-14T05:10:53;16.60;56.80
58993;DHT22;44782;0.000;0.000;2023-03-14T05:13:10;16.60;56.80
58993;DHT22;44782;0.000;0.000;2023-03-14T05:15:25;16.60;56.90
58993;DHT22;44782;0.000;0.000;2023-03-14T05:17:41;16.60;56.90
58993;DHT22;44782;0.000;0.000;2023-03-14T05:19:56;16.60;56.90
58993;DHT22;44782;0.000;0.000;2023-03-14T05:22:12;16.60;56.90
58993;DHT22;44782;0.000;0.000;2023-03-14T05:24:28;16.60;56.80
58993;DHT22;44782;0.000;0.000;2023-03-14T05:26:43;16.60;56.80
58993;DHT22;44782;0.000;0.000;2023-03-14T05:28:59;16.60;56.80
58993;DHT22;44782;0.000;0.000;2023-03-14T05:31:15;16.60;56.80
58993;DHT22;44782;0.000;0.000;2023-03-14T05:33:31;16.50;56.80
58993;DHT22;44782;0.000;0.000;2023-03-14T05:35:46;16.60;56.80
58993;DHT22;44782;0.000;0.000;2023-03-14T05:38:02;16.60;56.80
58993;DHT22;44782;0.000;0.000;2023-03-14T05:40:17;16.50;56.80
58993;DHT22;44782;0.000;0.000;2023-03-14T05:42:33;16.50;56.80
58993;DHT22;44782;0.000;0.000;2023-03-14T05:44:49;16.50;56.80
58993;DHT22;44782;0.000;0.000;2023-03-14T05:47:04;16.50;56.80
58993;DHT22;44782;0.000;0.000;2023-03-14T05:49:20;16.50;56.80
58993;DHT22;44782;0.000;0.000;2023-03-14T05:51:36;16.50;56.80
58993;DHT22;44782;0.000;0.000;2023-03-14T05:53:51;16.50;56.80
58993;DHT22;44782;0.000;0.000;2023-03-14T05:56:07;16.50;56.70
58993;DHT22;44782;0.000;0.000;2023-03-14T05:58:23;16.50;56.70
58993;DHT22;44782;0.000;0.000;2023-03-14T06:00:39;16.50;56.70
58993;DHT22;44782;0.000;0.000;2023-03-14T06:02:55;16.50;56.70
58993;DHT22;44782;0.000;0.000;2023-03-14T06:05:10;16.50;56.60
58993;DHT22;44782;0.000;0.000;2023-03-14T06:07:26;16.50;56.50
58993;DHT22;44782;0.000;0.000;2023-03-14T06:09:42;16.50;56.50
58993;DHT22;44782;0.000;0.000;2023-03-14T06:11:57;16.50;56.50
58993;DHT22;44782;0.000;0.000;2023-03-14T06:14:13;16.50;56.50
58993;DHT22;44782;0.000;0.000;2023-03-14T06:16:29;16.50;56.50
58993;DHT22;44782;0.000;0.000;2023-03-14T06:18:44;16.40;56.40
58993;DHT22;44782;0.000;0.000;2023-03-14T06:21:02;16.40;56.40
58993;DHT22;44782;0.000;0.000;2023-03-14T06:23:17;16.40;56.40
58993;DHT22;44782;0.000;0.000;2023-03-14T06:25:34;16.40;56.40
58993;DHT22;44782;0.000;0.000;2023-03-14T06:27:49;16.40;56.40
58993;DHT22;44782;0.000;0.000;2023-03-14T06:30:06;16.40;56.50
58993;DHT22;44782;0.000;0.000;2023-03-14T06:32:22;16.40;56.50
58993;DHT22;44782;0.000;0.000;2023-03-14T06:34:37;16.40;56.40
58993;DHT22;44782;0.000;0.000;2023-03-14T06:36:53;16.40;56.40
58993;DHT22;44782;0.000;0.000;2023-03-14T06:39:09;16.40;56.50
58993;DHT22;44782;0.000;0.000;2023-03-14T06:41:25;16.40;56.40
58993;DHT22;44782;0.000;0.000;2023-03-14T06:43:42;16.40;56.40
58993;DHT22;44782;0.000;0.000;2023-03-14T06:45:57;16.40;56.40
58993;DHT22;44782;0.000;0.000;2023-03-14T06:48:13;16.40;56.40
58993;DHT22;44782;0.000;0.000;2023-03-14T06:50:28;16.40;56.40
58993;DHT22;44782;0.000;0.000;2023-03-14T06:52:44;16.40;56.30
58993;DHT22;44782;0.000;0.000;2023-03-14T06:55:03;16.40;56.40
58993;DHT22;44782;0.000;0.000;2023-03-14T06:57:19;16.40;56.40
58993;DHT22;44782;0.000;0.000;2023-03-14T06:59:34;16.30;56.30
58993;DHT22;44782;0.000;0.000;2023-03-14T07:01:50;16.30;56.30
58993;DHT22;44782;0.000;0.000;2023-03-14T07:04:06;16.40;56.30
58993;DHT22;44782;0.000;0.000;2023-03-14T07:06:22;16.30;56.20
58993;DHT22;44782;0.000;0.000;2023-03-14T07:08:37;16.30;56.20
58993;DHT22;44782;0.000;0.000;2023-03-14T07:10:56;16.30;56.70
58993;DHT22;44782;0.000;0.000;2023-03-14T07:13:12;16.30;56.10
58993;DHT22;44782;0.000;0.000;2023-03-14T07:15:29;16.30;56.20
58993;DHT22;44782;0.000;0.000;2023-03-14T07:17:46;16.30;56.20
58993;DHT22;44782;0.000;0.000;2023-03-14T07:20:03;16.30;56.10
58993;DHT22;44782;0.000;0.000;2023-03-14T07:22:20;16.30;56.20
58993;DHT22;44782;0.000;0.000;2023-03-14T07:24:35;16.30;56.10
58993;DHT22;44782;0.000;0.000;2023-03-14T07:26:51;16.30;56.00
58993;DHT22;44782;0.000;0.000;2023-03-14T07:29:06;16.30;56.00
58993;DHT22;44782;0.000;0.000;2023-03-14T07:31:22;16.30;56.00
58993;DHT22;44782;0.000;0.000;2023-03-14T07:33:38;16.30;56.00
58993;DHT22;44782;0.000;0.000;2023-03-14T07:35:54;16.30;56.00
58993;DHT22;44782;0.000;0.000;2023-03-14T07:38:10;16.30;56.00
58993;DHT22;44782;0.000;0.000;2023-03-14T07:40:25;16.30;55.90
58993;DHT22;44782;0.000;0.000;2023-03-14T07:42:42;16.30;55.90
58993;DHT22;44782;0.000;0.000;2023-03-14T07:44:58;16.30;55.90
58993;DHT22;44782;0.000;0.000;2023-03-14T07:47:13;16.30;55.90
58993;DHT22;44782;0.000;0.000;2023-03-14T07:49:29;16.30;55.90
58993;DHT22;44782;0.000;0.000;2023-03-14T07:51:48;16.30;55.70
58993;DHT22;44782;0.000;0.000;2023-03-14T07:54:03;16.30;55.60
58993;DHT22;44782;0.000;0.000;2023-03-14T07:56:19;16.30;55.70
58993;DHT22;44782;0.000;0.000;2023-03-14T07:58:35;16.30;55.70
58993;DHT22;44782;0.000;0.000;2023-03-14T08:00:51;16.30;55.70
58993;DHT22;44782;0.000;0.000;2023-03-14T08:03:07;16.30;55.60
58993;DHT22;44782;0.000;0.000;2023-03-14T08:05:23;16.30;55.50
58993;DHT22;44782;0.000;0.000;2023-03-14T08:07:38;16.30;55.50
58993;DHT22;44782;0.000;0.000;2023-03-14T08:09:54;16.30;55.50
58993;DHT22;44782;0.000;0.000;2023-03-14T08:12:09;16.30;55.50
58993;DHT22;44782;0.000;0.000;2023-03-14T08:14:25;16.30;55.50
58993;DHT22;44782;0.000;0.000;2023-03-14T08:16:41;16.30;55.50
58993;DHT22;44782;0.000;0.000;2023-03-14T08:18:57;16.30;55.50
58993;DHT22;44782;0.000;0.000;2023-03-14T08:21:13;16.30;55.40
58993;DHT22;44782;0.000;0.000;2023-03-14T08:23:29;16.30;55.30
58993;DHT22;44782;0.000;0.000;2023-03-14T08:25:44;16.40;55.30
58993;DHT22;44782;0.000;0.000;2023-03-14T08:28:00;16.30;55.20
58993;DHT22;44782;0.000;0.000;2023-03-14T08:30:18;16.30;55.30
58993;DHT22;44782;0.000;0.000;2023-03-14T08:32:33;16.30;55.20
58993;DHT22;44782;0.000;0.000;2023-03-14T08:34:49;16.30;55.10
58993;DHT22;44782;0.000;0.000;2023-03-14T08:37:05;16.40;55.20
58993;DHT22;44782;0.000;0.000;2023-03-14T08:39:21;16.40;55.20
58993;DHT22;44782;0.000;0.000;2023-03-14T08:41:37;16.40;55.20
58993;DHT22;44782;0.000;0.000;2023-03-14T08:43:55;16.40;55.10
58993;DHT22;44782;0.000;0.000;2023-03-14T08:46:11;16.40;55.10
58993;DHT22;44782;0.000;0.000;2023-03-14T08:48:27;16.40;55.00
58993;DHT22;44782;0.000;0.000;2023-03-14T08:50:45;16.40;55.00
58993;DHT22;44782;0.000;0.000;2023-03-14T08:53:00;16.40;54.90
58993;DHT22;44782;0.000;0.000;2023-03-14T08:55:16;16.40;54.90
58993;DHT22;44782;0.000;0.000;2023-03-14T08:57:32;16.30;54.80
58993;DHT22;44782;0.000;0.000;2023-03-14T08:59:47;16.30;54.90
58993;DHT22;44782;0.000;0.000;2023-03-14T09:02:03;16.30;54.90
58993;DHT22;44782;0.000;0.000;2023-03-14T09:04:19;16.40;55.00
58993;DHT22;44782;0.000;0.000;2023-03-14T09:06:35;16.30;54.80
58993;DHT22;44782;0.000;0.000;2023-03-14T09:08:51;16.30;54.80
58993;DHT22;44782;0.000;0.000;2023-03-14T09:11:07;16.30;54.70
58993;DHT22;44782;0.000;0.000;2023-03-14T09:13:24;16.30;54.70
58993;DHT22;44782;0.000;0.000;2023-03-14T09:15:39;16.30;54.70
58993;DHT22;44782;0.000;0.000;2023-03-14T09:17:58;16.30;54.70
58993;DHT22;44782;0.000;0.000;2023-03-14T09:20:13;16.30;54.70
58993;DHT22;44782;0.000;0.000;2023-03-14T09:22:29;16.30;54.60
58993;DHT22;44782;0.000;0.000;2023-03-14T09:24:45;16.30;54.70
58993;DHT22;44782;0.000;0.000;2023-03-14T09:27:00;16.30;54.70
58993;DHT22;44782;0.000;0.000;2023-03-14T09:29:16;16.30;54.70
58993;DHT22;44782;0.000;0.000;2023-03-14T09:31:32;16.30;54.70
58993;DHT22;44782;0.000;0.000;2023-03-14T09:33:48;16.20;54.60
58993;DHT22;44782;0.000;0.000;2023-03-14T09:36:05;16.30;54.60
58993;DHT22;44782;0.000;0.000;2023-03-14T09:38:20;16.20;54.60
58993;DHT22;44782;0.000;0.000;2023-03-14T09:40:37;16.30;54.60
58993;DHT22;44782;0.000;0.000;2023-03-14T09:42:54;16.30;54.60
58993;DHT22;44782;0.000;0.000;2023-03-14T09:45:35;16.20;54.50
58993;DHT22;44782;0.000;0.000;2023-03-14T09:47:53;16.30;54.30
58993;DHT22;44782;0.000;0.000;2023-03-14T09:50:14;16.20;54.50
58993;DHT22;44782;0.000;0.000;2023-03-14T09:52:36;16.30;54.30
58993;DHT22;44782;0.000;0.000;2023-03-14T09:54:57;16.30;54.40
58993;DHT22;44782;0.000;0.000;2023-03-14T09:57:23;16.30;55.20
58993;DHT22;44782;0.000;0.000;2023-03-14T09:59:41;16.20;54.10
58993;DHT22;44782;0.000;0.000;2023-03-14T10:02:01;16.20;54.40
58993;DHT22;44782;0.000;0.000;2023-03-14T10:04:21;16.20;54.30
58993;DHT22;44782;0.000;0.000;2023-03-14T10:06:38;16.30;54.20
58993;DHT22;44782;0.000;0.000;2023-03-14T10:08:54;16.20;54.30
58993;DHT22;44782;0.000;0.000;2023-03-14T10:11:16;16.30;54.20
58993;DHT22;44782;0.000;0.000;2023-03-14T10:13:32;16.20;54.00
58993;DHT22;44782;0.000;0.000;2023-03-14T10:15:55;16.30;54.10
58993;DHT22;44782;0.000;0.000;2023-03-14T10:18:12;16.30;53.90
58993;DHT22;44782;0.000;0.000;2023-03-14T10:20:33;16.30;54.00
58993;DHT22;44782;0.000;0.000;2023-03-14T10:22:50;16.30;53.90
58993;DHT22;44782;0.000;0.000;2023-03-14T10:25:28;16.30;54.00
58993;DHT22;44782;0.000;0.000;2023-03-14T10:27:44;16.30;53.20
58993;DHT22;44782;0.000;0.000;2023-03-14T10:30:02;16.20;53.90
58993;DHT22;44782;0.000;0.000;2023-03-14T10:32:19;16.20;53.90
58993;DHT22;44782;0.000;0.000;2023-03-14T10:34:37;16.20;53.90
58993;DHT22;44782;0.000;0.000;2023-03-14T10:36:55;16.20;54.00
58993;DHT22;44782;0.000;0.000;2023-03-14T10:41:33;16.20;53.70
58993;DHT22;44782;0.000;0.000;2023-03-14T10:43:51;16.20;53.90
58993;DHT22;44782;0.000;0.000;2023-03-14T10:46:18;16.20;53.90
58993;DHT22;44782;0.000;0.000;2023-03-14T10:48:39;16.20;53.70
58993;DHT22;44782;0.000;0.000;2023-03-14T10:51:05;16.20;53.90
58993;DHT22;44782;0.000;0.000;2023-03-14T10:53:22;16.20;54.00
58993;DHT22;44782;0.000;0.000;2023-03-14T10:55:43;16.20;54.10
58993;DHT22;44782;0.000;0.000;2023-03-14T10:58:00;16.20;53.90
58993;DHT22;44782;0.000;0.000;2023-03-14T11:00:18;16.20;54.00
58993;DHT22;44782;0.000;0.000;2023-03-14T11:03:10;16.20;53.90
58993;DHT22;44782;0.000;0.000;2023-03-14T11:07:45;16.20;54.00
58993;DHT22;44782;0.000;0.000;2023-03-14T11:10:23;16.20;53.90
58993;DHT22;44782;0.000;0.000;2023-03-14T11:16:14;16.20;53.60
58993;DHT22;44782;0.000;0.000;2023-03-14T11:21:14;16.10;53.20
58993;DHT22;44782;0.000;0.000;2023-03-14T11:28:40;16.10;53.20
58993;DHT22;44782;0.000;0.000;2023-03-14T11:31:24;16.20;53.70
58993;DHT22;44782;0.000;0.000;2023-03-14T11:36:10;16.10;53.10
58993;DHT22;44782;0.000;0.000;2023-03-14T11:38:34;16.10;53.20
58993;DHT22;44782;0.000;0.000;2023-03-14T11:40:53;16.10;53.00
58993;DHT22;44782;0.000;0.000;2023-03-14T11:45:49;16.10;52.40
58993;DHT22;44782;0.000;0.000;2023-03-14T11:50:36;16.10;52.60
58993;DHT22;44782;0.000;0.000;2023-03-14T11:52:58;16.10;53.20
58993;DHT22;44782;0.000;0.000;2023-03-14T11:55:24;16.10;53.00
58993;DHT22;44782;0.000;0.000;2023-03-14T11:57:41;16.10;53.00
58993;DHT22;44782;0.000;0.000;2023-03-14T12:02:33;16.10;52.90
58993;DHT22;44782;0.000;0.000;2023-03-14T12:07:21;16.10;53.00
58993;DHT22;44782;0.000;0.000;2023-03-14T12:09:39;16.10;52.60
58993;DHT22;44782;0.000;0.000;2023-03-14T12:12:01;16.10;53.20
58993;DHT22;44782;0.000;0.000;2023-03-14T12:16:40;16.10;52.80
58993;DHT22;44782;0.000;0.000;2023-03-14T12:18:56;16.10;53.10
58993;DHT22;44782;0.000;0.000;2023-03-14T12:21:12;16.10;52.90
58993;DHT22;44782;0.000;0.000;2023-03-14T12:23:36;16.10;52.90
58993;DHT22;44782;0.000;0.000;2023-03-14T12:28:32;16.10;52.30
58993;DHT22;44782;0.000;0.000;2023-03-14T12:30:48;16.10;52.80
58993;DHT22;44782;0.000;0.000;2023-03-14T12:35:37;16.00;52.80
58993;DHT22;44782;0.000;0.000;2023-03-14T12:37:55;16.00;52.80
58993;DHT22;44782;0.000;0.000;2023-03-14T12:40:29;16.00;53.10
58993;DHT22;44782;0.000;0.000;2023-03-14T12:43:04;16.00;52.90
58993;DHT22;44782;0.000;0.000;2023-03-14T12:45:38;16.00;52.90
58993;DHT22;44782;0.000;0.000;2023-03-14T12:50:15;16.00;53.30
58993;DHT22;44782;0.000;0.000;2023-03-14T12:54:58;16.00;53.20
58993;DHT22;44782;0.000;0.000;2023-03-14T12:59:56;16.00;53.10
58993;DHT22;44782;0.000;0.000;2023-03-14T13:02:42;16.00;53.20
58993;DHT22;44782;0.000;0.000;2023-03-14T13:05:09;16.00;53.00
58993;DHT22;44782;0.000;0.000;2023-03-14T13:07:33;16.00;53.20
58993;DHT22;44782;0.000;0.000;2023-03-14T13:09:53;16.00;53.40
58993;DHT22;44782;0.000;0.000;2023-03-14T13:12:13;16.00;53.30
58993;DHT22;44782;0.000;0.000;2023-03-14T13:14:31;16.00;53.40
58993;DHT22;44782;0.000;0.000;2023-03-14T13:16:47;15.90;53.30
58993;DHT22;44782;0.000;0.000;2023-03-14T13:19:09;16.00;53.40
58993;DHT22;44782;0.000;0.000;2023-03-14T13:21:27;15.90;53.40
58993;DHT22;44782;0.000;0.000;2023-03-14T13:26:18;15.90;53.20
58993;DHT22;44782;0.000;0.000;2023-03-14T13:28:35;15.90;53.50
58993;DHT22;44782;0.000;0.000;2023-03-14T13:30:55;15.90;53.50
58993;DHT22;44782;0.000;0.000;2023-03-14T13:33:20;15.90;53.40
58993;DHT22;44782;0.000;0.000;2023-03-14T13:35:46;16.00;53.30
58993;DHT22;44782;0.000;0.000;2023-03-14T13:38:02;16.00;53.30
58993;DHT22;44782;0.000;0.000;2023-03-14T13:40:25;16.00;53.50
58993;DHT22;44782;0.000;0.000;2023-03-14T13:42:41;16.00;53.40
58993;DHT22;44782;0.000;0.000;2023-03-14T13:44:57;16.00;53.50
58993;DHT22;44782;0.000;0.000;2023-03-14T13:47:16;16.00;53.50
58993;DHT22;44782;0.000;0.000;2023-03-14T13:49:33;16.10;53.50
58993;DHT22;44782;0.000;0.000;2023-03-14T13:51:51;16.10;53.50
58993;DHT22;44782;0.000;0.000;2023-03-14T13:54:20;16.10;53.50
58993;DHT22;44782;0.000;0.000;2023-03-14T13:56:36;16.10;53.20
58993;DHT22;44782;0.000;0.000;2023-03-14T13:58:52;16.10;53.40
58993;DHT22;44782;0.000;0.000;2023-03-14T14:04:13;16.20;53.10
58993;DHT22;44782;0.000;0.000;2023-03-14T14:08:45;16.20;53.30
58993;DHT22;44782;0.000;0.000;2023-03-14T14:11:02;16.20;53.20
58993;DHT22;44782;0.000;0.000;2023-03-14T14:13:21;16.20;53.10
58993;DHT22;44782;0.000;0.000;2023-03-14T14:15:41;16.30;53.10
58993;DHT22;44782;0.000;0.000;2023-03-14T14:18:01;16.30;53.00
58993;DHT22;44782;0.000;0.000;2023-03-14T14:20:43;16.30;53.10
58993;DHT22;44782;0.000;0.000;2023-03-14T14:23:02;16.30;52.70
58993;DHT22;44782;0.000;0.000;2023-03-14T14:25:18;16.30;53.20
58993;DHT22;44782;0.000;0.000;2023-03-14T14:27:39;16.30;53.20
58993;DHT22;44782;0.000;0.000;2023-03-14T14:30:02;16.30;53.00
58993;DHT22;44782;0.000;0.000;2023-03-14T14:32:18;16.30;53.00
58993;DHT22;44782;0.000;0.000;2023-03-14T14:37:04;16.40;52.90
58993;DHT22;44782;0.000;0.000;2023-03-14T14:39:25;16.30;53.10
58993;DHT22;44782;0.000;0.000;2023-03-14T14:41:44;16.30;53.10
58993;DHT22;44782;0.000;0.000;2023-03-14T14:44:03;16.30;53.10
58993;DHT22;44782;0.000;0.000;2023-03-14T14:46:20;16.30;53.10
58993;DHT22;44782;0.000;0.000;2023-03-14T14:48:37;16.30;53.10
58993;DHT22;44782;0.000;0.000;2023-03-14T14:51:00;16.40;53.20
58993;DHT22;44782;0.000;0.000;2023-03-14T14:55:58;16.40;52.90
58993;DHT22;44782;0.000;0.000;2023-03-14T14:58:28;16.40;53.20
58993;DHT22;44782;0.000;0.000;2023-03-14T15:00:54;16.40;53.10
58993;DHT22;44782;0.000;0.000;2023-03-14T15:03:14;16.40;53.20
58993;DHT22;44782;0.000;0.000;2023-03-14T15:05:31;16.40;53.20
58993;DHT22;44782;0.000;0.000;2023-03-14T15:07:51;16.40;53.30
58993;DHT22;44782;0.000;0.000;2023-03-14T15:10:10;16.40;53.30
58993;DHT22;44782;0.000;0.000;2023-03-14T15:12:26;16.40;53.20
58993;DHT22;44782;0.000;0.000;2023-03-14T15:14:42;16.40;53.20
58993;DHT22;44782;0.000;0.000;2023-03-14T15:16:57;16.40;53.30
58993;DHT22;44782;0.000;0.000;2023-03-14T15:19:21;16.40;53.30
58993;DHT22;44782;0.000;0.000;2023-03-14T15:21:38;16.40;53.20
58993;DHT22;44782;0.000;0.000;2023-03-14T15:23:56;16.40;53.30
58993;DHT22;44782;0.000;0.000;2023-03-14T15:26:17;16.40;53.20
58993;DHT22;44782;0.000;0.000;2023-03-14T15:28:33;16.40;53.20
58993;DHT22;44782;0.000;0.000;2023-03-14T15:30:51;16.40;53.30
58993;DHT22;44782;0.000;0.000;2023-03-14T15:33:07;16.40;53.30
58993;DHT22;44782;0.000;0.000;2023-03-14T15:35:24;16.30;53.20
58993;DHT22;44782;0.000;0.000;2023-03-14T15:37:39;16.30;53.20
58993;DHT22;44782;0.000;0.000;2023-03-14T15:39:55;16.30;53.30
58993;DHT22;44782;0.000;0.000;2023-03-14T15:42:13;16.30;53.30
58993;DHT22;44782;0.000;0.000;2023-03-14T15:44:28;16.30;53.10
58993;DHT22;44782;0.000;0.000;2023-03-14T15:46:44;16.40;53.10